Walnut Grove, Pennsylvania
Current Conditions -  °F | °C
As of 9:56 AM on Monday 24 Nov 2014 (Local Time) from KCXY Reporting Station
Clear Clear  
Wind Chill: 67°   Ceiling: Unl
Heat Index: 67°   Visibility: 10mi
Dew Point: 57°   Wind: 18mph
Humidity: 70%   Direction: 200°SSW
Pressure: 29.62"   Gusts: 28mph
Location:  40.4932°N, 77.217°W
Report Text: KCXY 241456Z 20016G24KT 10SM CLR 19/14 A2962 RMK AO2 PK WND 21027/1409 SLP030 T01940139 51004
Loading
Personal Weather Stations






























Interactive Weather Map New forecast layout! Learn more

10-Day Weather Forecast

Advertisements
Track Severe Weather on mobile